createdAt,value
2023-04-16T00:01:04.480Z,9.61
2023-04-16T00:04:23.657Z,9.57
2023-04-16T00:07:55.808Z,9.53
2023-04-16T00:11:11.347Z,9.60
2023-04-16T00:14:52.142Z,9.63
2023-04-16T00:18:21.895Z,9.64
2023-04-16T00:22:02.684Z,9.65
2023-04-16T00:25:50.289Z,9.67
2023-04-16T00:29:31.803Z,9.62
2023-04-16T00:33:12.972Z,9.58
2023-04-16T00:37:00.778Z,9.42
2023-04-16T00:40:48.440Z,9.41
2023-04-16T00:44:26.298Z,9.43
2023-04-16T00:47:57.419Z,9.46
2023-04-16T00:51:24.033Z,9.46
2023-04-16T00:55:01.613Z,9.44
2023-04-16T00:58:49.290Z,9.34
2023-04-16T01:02:06.653Z,9.23
2023-04-16T01:05:54.507Z,9.23
2023-04-16T01:09:42.150Z,9.31
2023-04-16T01:13:22.787Z,9.25
2023-04-16T01:17:03.074Z,9.25
2023-04-16T01:20:49.740Z,9.15
2023-04-16T01:24:28.348Z,9.14
2023-04-16T01:27:59.401Z,9.08
2023-04-16T01:31:29.625Z,9.18
2023-04-16T01:35:17.126Z,9.24
2023-04-16T01:38:50.102Z,9.24
2023-04-16T01:42:15.296Z,9.29
2023-04-16T01:45:27.970Z,9.34
2023-04-16T01:49:01.388Z,9.34
2023-04-16T01:52:33.464Z,9.39
2023-04-16T01:56:19.390Z,9.40
2023-04-16T02:00:06.934Z,9.45
2023-04-16T02:03:47.518Z,9.45
2023-04-16T02:07:25.454Z,9.40
2023-04-16T02:11:02.686Z,9.38
2023-04-16T02:14:41.111Z,9.39
2023-04-16T02:18:27.523Z,9.42
2023-04-16T02:22:11.234Z,9.39
2023-04-16T02:25:41.329Z,9.39
2023-04-16T02:29:18.797Z,9.31
2023-04-16T02:32:49.215Z,9.24
2023-04-16T02:36:36.832Z,9.23
2023-04-16T02:39:53.269Z,9.18
2023-04-16T02:43:33.109Z,9.21
2023-04-16T02:47:20.604Z,9.25
2023-04-16T02:50:58.377Z,9.21
2023-04-16T02:54:45.777Z,9.12
2023-04-16T02:58:25.746Z,9.08
2023-04-16T03:02:13.276Z,9.10
2023-04-16T03:06:00.945Z,9.17
2023-04-16T03:09:47.080Z,9.22
2023-04-16T03:13:34.677Z,9.23
2023-04-16T03:17:22.252Z,9.17
2023-04-16T03:20:56.695Z,9.13
2023-04-16T03:24:44.194Z,9.14
2023-04-16T03:28:20.782Z,9.15
2023-04-16T03:31:58.476Z,9.11
2023-04-16T03:35:37.644Z,9.14
2023-04-16T03:39:25.344Z,9.14
2023-04-16T03:43:12.817Z,9.17
2023-04-16T03:46:31.698Z,9.15
2023-04-16T03:50:11.865Z,9.12
2023-04-16T03:53:59.474Z,9.05
2023-04-16T03:57:26.795Z,9.02
2023-04-16T04:01:15.364Z,8.79
2023-04-16T04:05:02.115Z,8.61
2023-04-16T04:08:49.775Z,8.50
2023-04-16T04:12:37.084Z,8.51
2023-04-16T04:16:07.448Z,8.49
2023-04-16T04:20:00.299Z,8.63
2023-04-16T04:23:39.928Z,8.68
2023-04-16T04:27:17.910Z,8.74
2023-04-16T04:31:05.735Z,8.83
2023-04-16T04:34:53.188Z,9.04
2023-04-16T04:38:24.509Z,9.17
2023-04-16T04:42:12.221Z,9.24
2023-04-16T04:45:54.387Z,9.33
2023-04-16T04:49:05.524Z,9.39
2023-04-16T04:52:51.618Z,9.53
2023-04-16T04:56:20.075Z,9.58
2023-04-16T05:00:08.153Z,9.62
2023-04-16T05:03:41.839Z,9.77
2023-04-16T05:07:24.590Z,9.78
2023-04-16T05:10:57.212Z,9.86
2023-04-16T05:14:42.413Z,9.81
2023-04-16T05:18:29.976Z,9.94
2023-04-16T05:21:57.603Z,9.96
2023-04-16T05:25:23.579Z,9.92
2023-04-16T05:29:04.113Z,9.75
2023-04-16T05:32:42.279Z,9.69
2023-04-16T05:36:29.883Z,9.65
2023-04-16T05:40:02.775Z,9.59
2023-04-16T05:43:44.118Z,9.67
2023-04-16T05:47:31.687Z,9.84
2023-04-16T05:51:02.074Z,9.95
2023-04-16T05:54:49.760Z,10.01
2023-04-16T05:58:19.810Z,10.01
2023-04-16T06:01:39.923Z,10.22
2023-04-16T06:05:12.822Z,10.39
2023-04-16T06:09:00.350Z,10.50
2023-04-16T06:12:35.892Z,10.66
2023-04-16T06:16:23.932Z,10.76
2023-04-16T06:19:54.577Z,10.79
2023-04-16T06:23:42.417Z,10.78
2023-04-16T06:27:10.175Z,10.96
2023-04-16T06:30:58.218Z,10.97
2023-04-16T06:34:46.021Z,10.95
2023-04-16T06:38:25.700Z,11.11
2023-04-16T06:42:07.720Z,11.36
2023-04-16T06:45:55.488Z,11.43
2023-04-16T06:49:28.792Z,11.47
2023-04-16T06:53:08.935Z,11.54
2023-04-16T06:56:56.789Z,11.68
2023-04-16T07:00:30.209Z,11.80
2023-04-16T07:04:18.571Z,12.00
2023-04-16T07:07:52.411Z,12.23
2023-04-16T07:11:33.743Z,12.31
2023-04-16T07:15:16.670Z,12.51
2023-04-16T07:19:04.753Z,12.84
2023-04-16T07:22:47.853Z,13.12
2023-04-16T07:26:18.356Z,13.12
2023-04-16T07:29:59.704Z,13.24
2023-04-16T07:33:35.187Z,13.41
2023-04-16T07:37:12.769Z,13.43
2023-04-16T07:40:44.140Z,13.57
2023-04-16T07:44:32.524Z,13.80
2023-04-16T07:48:06.024Z,13.93
2023-04-16T07:51:45.847Z,14.12
2023-04-16T07:55:33.862Z,14.21
2023-04-16T07:59:23.875Z,14.44
2023-04-16T08:03:12.145Z,14.40
2023-04-16T08:06:30.567Z,14.56
2023-04-16T08:10:18.506Z,14.78
2023-04-16T08:14:06.363Z,14.74
2023-04-16T08:17:44.455Z,14.83
2023-04-16T08:21:17.163Z,15.37
2023-04-16T08:24:55.124Z,15.90
2023-04-16T08:28:32.704Z,15.46
2023-04-16T08:32:20.279Z,15.39
2023-04-16T08:36:08.185Z,15.71
2023-04-16T08:39:55.911Z,16.00
2023-04-16T08:43:45.689Z,16.21
2023-04-16T08:47:33.385Z,16.32
2023-04-16T08:51:14.412Z,16.51
2023-04-16T08:55:04.969Z,16.99
2023-04-16T08:58:55.374Z,17.51
2023-04-16T09:02:33.850Z,18.47
2023-04-16T09:06:29.748Z,19.23
2023-04-16T09:10:08.064Z,18.83
2023-04-16T09:13:56.450Z,18.18
2023-04-16T09:17:44.909Z,18.06
2023-04-16T09:21:24.289Z,17.47
2023-04-16T09:25:13.328Z,16.16
2023-04-16T09:29:00.327Z,16.57
2023-04-16T09:32:56.946Z,16.90
2023-04-16T09:36:44.778Z,16.96
2023-04-16T09:40:35.822Z,17.38
2023-04-16T09:44:29.882Z,16.85
2023-04-16T09:48:17.255Z,17.56
2023-04-16T09:52:02.413Z,17.89
2023-04-16T09:55:50.736Z,17.84
2023-04-16T09:59:00.087Z,17.82
2023-04-16T10:02:41.130Z,17.57
2023-04-16T10:06:18.724Z,17.81
2023-04-16T10:09:52.156Z,18.01
2023-04-16T10:13:32.576Z,17.94
2023-04-16T10:17:21.178Z,17.35
2023-04-16T10:21:09.068Z,17.40
2023-04-16T10:24:55.636Z,18.03
2023-04-16T10:28:37.551Z,18.65
2023-04-16T10:32:25.286Z,19.27
2023-04-16T10:36:12.903Z,18.91
2023-04-16T10:40:00.609Z,18.48
2023-04-16T10:44:00.794Z,17.25
2023-04-16T10:47:51.566Z,17.21
2023-04-16T10:51:39.341Z,17.35
2023-04-16T10:55:27.120Z,17.17
2023-04-16T10:59:26.845Z,17.48
2023-04-16T11:03:17.530Z,17.50
2023-04-16T11:07:03.602Z,17.42
2023-04-16T11:10:51.555Z,17.73
2023-04-16T11:14:32.116Z,17.88
2023-04-16T11:18:18.845Z,17.83
2023-04-16T11:22:06.798Z,18.07
2023-04-16T11:25:56.538Z,18.46
2023-04-16T11:29:46.972Z,18.79
2023-04-16T11:33:28.358Z,19.53
2023-04-16T11:37:10.028Z,20.64
2023-04-16T11:40:52.523Z,19.59
2023-04-16T11:44:40.938Z,19.44
2023-04-16T11:48:34.392Z,19.30
2023-04-16T11:52:20.131Z,18.52
2023-04-16T11:56:01.489Z,18.53
2023-04-16T11:59:31.131Z,18.49
2023-04-16T12:03:18.971Z,17.98
2023-04-16T12:07:09.720Z,17.17
2023-04-16T12:11:08.158Z,17.48
2023-04-16T12:15:11.096Z,17.51
2023-04-16T12:19:08.677Z,17.33
2023-04-16T12:23:04.440Z,16.42
2023-04-16T12:26:52.728Z,15.52
2023-04-16T12:30:50.692Z,15.26
2023-04-16T12:34:48.409Z,14.94
2023-04-16T12:38:50.044Z,14.67
2023-04-16T12:42:40.049Z,14.35
2023-04-16T12:46:29.190Z,14.05
2023-04-16T12:50:16.162Z,13.88
2023-04-16T12:54:04.122Z,13.84
2023-04-16T12:57:51.769Z,13.85
2023-04-16T13:01:39.578Z,13.60
2023-04-16T13:05:28.577Z,13.39
2023-04-16T13:08:59.592Z,13.03
2023-04-16T13:12:40.497Z,12.99
2023-04-16T13:16:18.838Z,12.82
2023-04-16T13:20:06.811Z,12.80
2023-04-16T13:23:53.587Z,12.75
2023-04-16T13:27:41.363Z,12.45
2023-04-16T13:31:22.008Z,12.09
2023-04-16T13:35:00.061Z,11.74
2023-04-16T13:38:30.862Z,11.65
2023-04-16T13:42:03.251Z,11.69
2023-04-16T13:45:37.351Z,11.84
2023-04-16T13:49:09.605Z,11.95
2023-04-16T13:52:52.549Z,12.17
2023-04-16T13:56:31.554Z,12.41
2023-04-16T13:59:41.198Z,12.48
2023-04-16T14:03:28.384Z,12.58
2023-04-16T14:07:15.208Z,12.62
2023-04-16T14:11:05.361Z,12.58
2023-04-16T14:14:30.090Z,12.50
2023-04-16T14:18:18.456Z,12.53
2023-04-16T14:21:59.031Z,12.31
2023-04-16T14:25:47.029Z,12.26
2023-04-16T14:29:27.943Z,12.15
2023-04-16T14:33:16.907Z,12.11
2023-04-16T14:36:50.415Z,12.20
2023-04-16T14:40:23.962Z,12.39
2023-04-16T14:44:12.880Z,12.49
2023-04-16T14:48:01.502Z,12.54
2023-04-16T14:51:34.151Z,12.67
2023-04-16T14:55:22.686Z,12.87
2023-04-16T14:59:10.656Z,12.90
2023-04-16T15:02:53.051Z,12.95
2023-04-16T15:06:32.279Z,13.10
2023-04-16T15:10:21.165Z,13.02
2023-04-16T15:13:58.924Z,13.12
2023-04-16T15:17:40.067Z,13.08
2023-04-16T15:21:30.342Z,13.00
2023-04-16T15:25:28.260Z,13.01
2023-04-16T15:29:23.223Z,12.92
2023-04-16T15:33:01.677Z,12.86
2023-04-16T15:36:49.412Z,12.99
2023-04-16T15:40:37.183Z,13.03
2023-04-16T15:44:25.199Z,13.08
2023-04-16T15:48:12.041Z,13.05
2023-04-16T15:52:00.674Z,12.94
2023-04-16T15:55:49.828Z,12.93
2023-04-16T15:59:37.492Z,12.98
2023-04-16T16:03:25.258Z,13.05
2023-04-16T16:07:13.593Z,13.00
2023-04-16T16:11:54.060Z,12.87
2023-04-16T16:15:00.212Z,12.71
2023-04-16T16:18:48.838Z,12.59
2023-04-16T16:22:30.082Z,12.64
2023-04-16T16:26:18.154Z,12.61
2023-04-16T16:30:06.418Z,12.58
2023-04-16T16:33:54.954Z,12.57
2023-04-16T16:37:33.491Z,12.62
2023-04-16T16:41:21.532Z,12.59
2023-04-16T16:45:13.444Z,12.63
2023-04-16T16:49:04.509Z,12.59
2023-04-16T16:52:53.089Z,12.50
2023-04-16T16:56:27.349Z,12.39
2023-04-16T17:00:15.348Z,12.32
2023-04-16T17:04:03.161Z,12.33
2023-04-16T17:07:51.927Z,12.26
2023-04-16T17:11:39.190Z,12.21
2023-04-16T17:15:09.933Z,12.14
2023-04-16T17:18:48.780Z,12.11
2023-04-16T17:22:36.523Z,12.06
2023-04-16T17:26:24.345Z,12.03
2023-04-16T17:30:12.299Z,11.95
2023-04-16T17:33:59.948Z,11.89
2023-04-16T17:37:37.120Z,11.82
2023-04-16T17:41:15.761Z,11.79
2023-04-16T17:44:53.401Z,11.79
2023-04-16T17:48:40.495Z,11.76
2023-04-16T17:52:28.280Z,11.71
2023-04-16T17:56:17.033Z,11.63
2023-04-16T17:59:54.089Z,11.64
2023-04-16T18:03:38.467Z,11.65
2023-04-16T18:07:07.748Z,11.62
2023-04-16T18:10:54.973Z,11.57
2023-04-16T18:14:33.599Z,11.53
2023-04-16T18:18:13.282Z,11.44
2023-04-16T18:22:01.489Z,11.40
2023-04-16T18:25:44.694Z,11.34
2023-04-16T18:29:34.001Z,11.27
2023-04-16T18:33:48.815Z,11.21
2023-04-16T18:37:33.302Z,11.19
2023-04-16T18:41:14.413Z,11.19
2023-04-16T18:45:03.735Z,11.19
2023-04-16T18:48:55.760Z,11.19
2023-04-16T18:52:35.054Z,11.13
2023-04-16T18:56:24.114Z,11.08
2023-04-16T18:59:45.857Z,11.04
2023-04-16T19:03:37.498Z,11.06
2023-04-16T19:07:27.259Z,11.04
2023-04-16T19:10:58.628Z,11.05
2023-04-16T19:14:47.620Z,11.05
2023-04-16T19:18:24.841Z,11.05
2023-04-16T19:22:05.720Z,11.07
2023-04-16T19:25:47.277Z,11.01
2023-04-16T19:29:36.234Z,10.92
2023-04-16T19:33:26.113Z,10.89
2023-04-16T19:37:14.665Z,10.94
2023-04-16T19:41:03.581Z,10.93
2023-04-16T19:44:35.033Z,10.91
2023-04-16T19:48:25.561Z,10.89
2023-04-16T19:52:17.105Z,10.89
2023-04-16T19:56:10.776Z,10.88
2023-04-16T19:59:59.212Z,10.75
2023-04-16T20:03:49.332Z,10.68
2023-04-16T20:07:37.283Z,10.62
2023-04-16T20:11:26.290Z,10.57
2023-04-16T20:15:15.707Z,10.53
2023-04-16T20:19:05.243Z,10.47
2023-04-16T20:22:55.172Z,10.43
2023-04-16T20:26:43.112Z,10.44
2023-04-16T20:30:19.831Z,10.48
2023-04-16T20:33:43.753Z,10.48
2023-04-16T20:37:23.359Z,10.51
2023-04-16T20:41:14.389Z,10.49
2023-04-16T20:45:00.085Z,10.46
2023-04-16T20:48:49.425Z,10.49
2023-04-16T20:52:24.054Z,10.50
2023-04-16T20:56:10.550Z,10.48
2023-04-16T21:00:01.062Z,10.47
2023-04-16T21:03:35.055Z,10.43
2023-04-16T21:07:14.955Z,10.44
2023-04-16T21:11:03.464Z,10.45
2023-04-16T21:14:51.058Z,10.45
2023-04-16T21:18:39.116Z,10.43
2023-04-16T21:22:27.594Z,10.41
2023-04-16T21:26:06.305Z,10.38
2023-04-16T21:29:40.831Z,10.37
2023-04-16T21:33:28.571Z,10.40
2023-04-16T21:37:00.878Z,10.33
2023-04-16T21:40:48.528Z,10.31
2023-04-16T21:44:35.305Z,10.26
2023-04-16T21:48:02.447Z,10.25
2023-04-16T21:51:43.901Z,10.19
2023-04-16T21:55:30.467Z,10.23
2023-04-16T21:59:07.822Z,10.27
2023-04-16T22:02:53.135Z,10.23
2023-04-16T22:06:23.408Z,10.27
2023-04-16T22:10:12.957Z,10.30
2023-04-16T22:13:39.601Z,10.28
2023-04-16T22:17:24.337Z,10.29
2023-04-16T22:20:46.404Z,10.38
2023-04-16T22:24:34.023Z,10.36
2023-04-16T22:28:04.451Z,10.31
2023-04-16T22:31:52.046Z,10.36
2023-04-16T22:35:39.610Z,10.32
2023-04-16T22:39:14.373Z,10.28
2023-04-16T22:42:44.892Z,10.36
2023-04-16T22:46:41.799Z,10.30
2023-04-16T22:50:29.338Z,10.28
2023-04-16T22:54:16.752Z,10.28
2023-04-16T22:58:00.662Z,10.25
2023-04-16T23:01:32.493Z,10.33
2023-04-16T23:05:20.095Z,10.33
2023-04-16T23:09:06.611Z,10.34
2023-04-16T23:12:44.094Z,10.32
2023-04-16T23:16:24.261Z,10.42
2023-04-16T23:19:57.175Z,10.48
2023-04-16T23:23:37.377Z,10.29
2023-04-16T23:27:17.318Z,10.23
2023-04-16T23:31:07.095Z,10.19
2023-04-16T23:34:55.039Z,10.13
2023-04-16T23:38:42.484Z,10.16
2023-04-16T23:42:17.412Z,10.13
2023-04-16T23:45:48.169Z,10.13
2023-04-16T23:49:28.335Z,10.15
2023-04-16T23:53:15.791Z,10.12
2023-04-16T23:57:03.266Z,10.08
